Avord (BA 702) Air Base

Airport
ICAO code: 
LFOA
Summary
ICAO Region: 
EUR
Territory: 
Location: 
, Centre
Serving: 
Avord
Elevation: 
580 ft
Coordinates: 
Aerial View: 
47° 3' 11.999" N, 2° 37' 57" E
Metar
Observation
LFOA 210430Z AUTO 04006KT 9999 OVC012 01/M00 Q1034
Station
Avord
Date/Time
2022-01-21 04:30:00
Wind direction
40°
Wind speed
06 kts
Lowest cloud amount
overcast
Temperature
1°C
Dew point
-0°C
Humidity
93%
QNH
1034 hPa
Weather condition
n/a

Runways

Designator Length Width Surface Rops
6/24 3503 45 ASP No/No
Airport map: 
Aerial View: 

SKYbrary Partners:

Safety knowledge contributed by: